Time;durP1;ratioP1;P1;durP2;ratioP2;P2;SDS_P1;SDS_P2;PMS_P1;PMS_P2;Temp;Humidity;BMP_temperature;BMP_pressure;BME280_temperature;BME280_humidity;BME280_pressure;Samples;Min_cycle;Max_cycle;Signal;HPM_P1;HPM_P2
2023/08/04 00:02:20;;;;;;;18.30;17.40;;;;;;;;;;5030021;28;20527;-45
2023/08/04 00:04:47;;;;;;;20.37;18.87;;;;;;;;;;5030090;28;21052;-42
2023/08/04 00:07:15;;;;;;;19.90;18.40;;;;;;;;;;5029917;28;20431;-43
2023/08/04 00:09:42;;;;;;;19.33;18.10;;;;;;;;;;5030010;28;20480;-41
2023/08/04 00:12:11;;;;;;;20.27;18.77;;;;;;;;;;5030460;28;20428;-43
2023/08/04 00:14:39;;;;;;;19.70;18.70;;;;;;;;;;5030250;28;20533;-43
2023/08/04 00:17:06;;;;;;;21.30;19.63;;;;;;;;;;5035607;28;20428;-43
2023/08/04 00:19:34;;;;;;;18.80;17.90;;;;;;;;;;5038100;28;20455;-42
2023/08/04 00:22:02;;;;;;;19.80;18.40;;;;;;;;;;5037579;28;20471;-44
2023/08/04 00:24:29;;;;;;;20.20;19.10;;;;;;;;;;5036592;28;20479;-43
2023/08/04 00:26:57;;;;;;;20.10;19.03;;;;;;;;;;5038571;28;20436;-43
2023/08/04 00:29:26;;;;;;;19.23;18.00;;;;;;;;;;5037104;28;20834;-42
2023/08/04 00:31:53;;;;;;;20.53;19.23;;;;;;;;;;5036444;28;20428;-42
2023/08/04 00:34:21;;;;;;;20.80;19.40;;;;;;;;;;5037277;28;20968;-43
2023/08/04 00:36:49;;;;;;;19.83;18.53;;;;;;;;;;5037316;28;20486;-42
2023/08/04 00:39:17;;;;;;;20.50;19.13;;;;;;;;;;5036433;28;20464;-43
2023/08/04 00:41:44;;;;;;;20.70;19.33;;;;;;;;;;5036677;28;20432;-45
2023/08/04 00:44:12;;;;;;;20.23;18.93;;;;;;;;;;5037881;28;20842;-43
2023/08/04 00:46:41;;;;;;;20.77;19.03;;;;;;;;;;5037389;28;20443;-42
2023/08/04 00:49:09;;;;;;;19.93;18.50;;;;;;;;;;5036881;28;20515;-42
2023/08/04 00:51:37;;;;;;;20.97;19.47;;;;;;;;;;5035948;28;20479;-45
2023/08/04 00:54:05;;;;;;;20.43;19.10;;;;;;;;;;5034866;28;20435;-43
2023/08/04 00:56:33;;;;;;;20.53;19.23;;;;;;;;;;5036164;28;20444;-48
2023/08/04 00:59:00;;;;;;;22.17;20.70;;;;;;;;;;5035517;28;20431;-44
2023/08/04 01:01:28;;;;;;;21.47;19.50;;;;;;;;;;5036271;28;20973;-42
2023/08/04 01:03:57;;;;;;;21.30;20.00;;;;;;;;;;5035718;28;20433;-45
2023/08/04 01:06:26;;;;;;;21.53;19.97;;;;;;;;;;5037027;28;20456;-44
2023/08/04 01:08:56;;;;;;;20.27;19.10;;;;;;;;;;5035740;28;20432;-45
2023/08/04 01:11:28;;;;;;;20.27;19.23;;;;;;;;;;5036562;28;20472;-42
2023/08/04 01:13:56;;;;;;;19.83;18.90;;;;;;;;;;5036131;28;20552;-45
2023/08/04 01:16:24;;;;;;;21.90;19.90;;;;;;;;;;5036523;28;20452;-44
2023/08/04 01:18:51;;;;;;;21.40;20.30;;;;;;;;;;5036862;28;20437;-45
2023/08/04 01:21:20;;;;;;;20.47;19.10;;;;;;;;;;5036762;28;20856;-42
2023/08/04 01:23:48;;;;;;;20.80;19.67;;;;;;;;;;5036519;28;20497;-44
2023/08/04 01:26:15;;;;;;;21.87;19.90;;;;;;;;;;5037352;28;20503;-43
2023/08/04 01:28:43;;;;;;;20.90;19.70;;;;;;;;;;5036933;28;20457;-44
2023/08/04 01:31:11;;;;;;;20.73;19.27;;;;;;;;;;5036686;28;20542;-44
2023/08/04 01:33:38;;;;;;;20.03;19.03;;;;;;;;;;5036635;28;20463;-44
2023/08/04 01:36:06;;;;;;;20.83;19.47;;;;;;;;;;5036583;28;20974;-45
2023/08/04 01:38:35;;;;;;;20.73;19.63;;;;;;;;;;5036241;28;20471;-44
2023/08/04 01:41:05;;;;;;;21.00;19.80;;;;;;;;;;5036688;28;20456;-42
2023/08/04 01:43:33;;;;;;;20.43;19.53;;;;;;;;;;5036437;28;20459;-43
2023/08/04 01:46:00;;;;;;;19.90;18.80;;;;;;;;;;5036457;28;20456;-43
2023/08/04 01:48:28;;;;;;;20.50;19.37;;;;;;;;;;5036148;28;20515;-46
2023/08/04 01:50:55;;;;;;;20.17;18.97;;;;;;;;;;5036837;28;20472;-42
2023/08/04 01:53:23;;;;;;;19.83;18.90;;;;;;;;;;5040067;28;20436;-46
2023/08/04 01:55:52;;;;;;;20.10;19.00;;;;;;;;;;5040734;28;20456;-42
2023/08/04 01:58:20;;;;;;;19.13;18.13;;;;;;;;;;5040007;28;20930;-43
2023/08/04 02:00:47;;;;;;;20.27;19.07;;;;;;;;;;5039232;28;20483;-43
2023/08/04 02:03:15;;;;;;;19.37;18.40;;;;;;;;;;5039506;28;20431;-44
2023/08/04 02:05:45;;;;;;;20.13;18.90;;;;;;;;;;5039771;28;20494;-44
2023/08/04 02:08:13;;;;;;;19.57;18.13;;;;;;;;;;5039523;28;20428;-45
2023/08/04 02:10:46;;;;;;;20.30;18.80;;;;;;;;;;5039142;28;21003;-44
2023/08/04 02:13:15;;;;;;;18.17;17.37;;;;;;;;;;5040271;28;20428;-44
2023/08/04 02:15:43;;;;;;;20.90;19.30;;;;;;;;;;5039716;28;20459;-45
2023/08/04 02:18:11;;;;;;;20.07;18.77;;;;;;;;;;5039996;28;20922;-43
2023/08/04 02:20:38;;;;;;;19.07;18.27;;;;;;;;;;5039033;28;20460;-44
2023/08/04 02:23:06;;;;;;;18.60;17.60;;;;;;;;;;5039165;28;20449;-43
2023/08/04 02:25:34;;;;;;;19.00;18.20;;;;;;;;;;5038986;28;20456;-44
2023/08/04 02:28:01;;;;;;;18.40;17.70;;;;;;;;;;5039065;28;20476;-45
2023/08/04 02:30:31;;;;;;;19.20;18.20;;;;;;;;;;5039022;28;20526;-42
2023/08/04 02:32:58;;;;;;;18.50;17.70;;;;;;;;;;5038949;28;20412;-43
2023/08/04 02:35:26;;;;;;;18.10;17.20;;;;;;;;;;5038475;28;20460;-45
2023/08/04 02:37:54;;;;;;;19.40;18.27;;;;;;;;;;5040027;28;20432;-43
2023/08/04 02:40:22;;;;;;;17.70;16.73;;;;;;;;;;5038997;28;20883;-43
2023/08/04 02:42:49;;;;;;;18.83;17.93;;;;;;;;;;5040013;28;20459;-46
2023/08/04 02:45:17;;;;;;;16.23;15.53;;;;;;;;;;5039456;28;20834;-43
2023/08/04 02:47:46;;;;;;;16.87;15.80;;;;;;;;;;5040848;28;20436;-43
2023/08/04 02:50:14;;;;;;;15.97;15.20;;;;;;;;;;5039371;28;20886;-47
2023/08/04 02:52:42;;;;;;;16.83;15.93;;;;;;;;;;5039826;28;20547;-42
2023/08/04 02:55:10;;;;;;;15.87;15.07;;;;;;;;;;5039574;28;20456;-43
2023/08/04 02:57:37;;;;;;;16.97;15.97;;;;;;;;;;5039445;28;20997;-42
2023/08/04 03:00:05;;;;;;;16.20;15.50;;;;;;;;;;5038709;28;21278;-45
2023/08/04 03:02:33;;;;;;;18.20;16.83;;;;;;;;;;5038480;28;20436;-45
2023/08/04 03:05:02;;;;;;;17.63;16.37;;;;;;;;;;5039482;28;21186;-43
2023/08/04 03:07:30;;;;;;;17.93;16.73;;;;;;;;;;5039574;28;20434;-46
2023/08/04 03:09:57;;;;;;;17.00;16.00;;;;;;;;;;5039037;28;20518;-44
2023/08/04 03:12:25;;;;;;;18.53;17.60;;;;;;;;;;5038926;28;20508;-44
2023/08/04 03:14:52;;;;;;;17.90;16.90;;;;;;;;;;5040825;28;20456;-43
2023/08/04 03:17:20;;;;;;;18.77;17.60;;;;;;;;;;5038983;28;20942;-43
2023/08/04 03:19:48;;;;;;;18.10;16.73;;;;;;;;;;5039265;28;20583;-43
2023/08/04 03:22:16;;;;;;;18.50;17.30;;;;;;;;;;5039184;28;20440;-45
2023/08/04 03:24:44;;;;;;;20.20;18.30;;;;;;;;;;5038955;28;20483;-43
2023/08/04 03:27:12;;;;;;;18.03;17.07;;;;;;;;;;5039501;28;20489;-43
2023/08/04 03:29:39;;;;;;;18.73;17.43;;;;;;;;;;5039444;28;20468;-43
2023/08/04 03:32:07;;;;;;;17.90;17.17;;;;;;;;;;5034095;28;20570;-44
2023/08/04 03:34:34;;;;;;;18.70;17.93;;;;;;;;;;5031999;28;20444;-43
2023/08/04 03:37:02;;;;;;;19.53;18.50;;;;;;;;;;5031573;28;20440;-44
2023/08/04 03:39:31;;;;;;;19.40;18.60;;;;;;;;;;5030814;28;20464;-46
2023/08/04 03:41:58;;;;;;;19.33;18.13;;;;;;;;;;5031465;28;20436;-46
2023/08/04 03:44:26;;;;;;;19.30;18.30;;;;;;;;;;5031118;28;20432;-45
2023/08/04 03:46:54;;;;;;;19.33;18.43;;;;;;;;;;5031732;28;20440;-44
2023/08/04 03:49:21;;;;;;;19.30;18.00;;;;;;;;;;5030611;28;20513;-44
2023/08/04 03:51:49;;;;;;;19.80;18.53;;;;;;;;;;5030541;28;20471;-43
2023/08/04 03:54:16;;;;;;;17.70;16.70;;;;;;;;;;5031392;28;20483;-45
2023/08/04 03:56:45;;;;;;;17.63;16.87;;;;;;;;;;5030453;28;20436;-46
2023/08/04 03:59:13;;;;;;;18.40;17.50;;;;;;;;;;5030873;28;20456;-42
2023/08/04 04:01:40;;;;;;;18.10;17.30;;;;;;;;;;5031066;28;20494;-44
2023/08/04 04:04:08;;;;;;;18.40;17.10;;;;;;;;;;5030633;28;20429;-47
2023/08/04 04:06:35;;;;;;;18.63;17.63;;;;;;;;;;5030514;28;20990;-45
2023/08/04 04:09:03;;;;;;;17.93;17.20;;;;;;;;;;5030444;28;20790;-45
2023/08/04 04:11:31;;;;;;;19.17;17.97;;;;;;;;;;5030348;28;21033;-45
2023/08/04 04:14:00;;;;;;;18.77;17.80;;;;;;;;;;5030655;28;20485;-43
2023/08/04 04:16:29;;;;;;;19.40;18.10;;;;;;;;;;5029897;28;20534;-44
2023/08/04 04:18:57;;;;;;;18.63;17.83;;;;;;;;;;5029983;28;20770;-47
2023/08/04 04:21:25;;;;;;;19.90;18.80;;;;;;;;;;5030917;28;20443;-43
2023/08/04 04:23:52;;;;;;;18.60;17.60;;;;;;;;;;5031400;28;20440;-43
2023/08/04 04:26:20;;;;;;;18.30;17.30;;;;;;;;;;5030188;28;20534;-43
2023/08/04 04:28:47;;;;;;;19.10;17.90;;;;;;;;;;5029435;28;20941;-43
2023/08/04 04:31:16;;;;;;;18.87;17.67;;;;;;;;;;5030656;28;20444;-45
2023/08/04 04:33:44;;;;;;;19.33;18.47;;;;;;;;;;5031060;28;20460;-42
2023/08/04 04:36:12;;;;;;;19.23;18.33;;;;;;;;;;5030855;28;20491;-43
2023/08/04 04:38:39;;;;;;;19.10;18.23;;;;;;;;;;5031063;28;20933;-43
2023/08/04 04:41:07;;;;;;;19.47;18.20;;;;;;;;;;5030257;28;21074;-43
2023/08/04 04:43:34;;;;;;;19.20;18.40;;;;;;;;;;5030052;28;20436;-43
2023/08/04 04:46:02;;;;;;;19.53;18.53;;;;;;;;;;5030437;28;21283;-43
2023/08/04 04:48:31;;;;;;;20.00;18.80;;;;;;;;;;5029686;28;20436;-43
2023/08/04 04:50:59;;;;;;;19.80;18.53;;;;;;;;;;5029882;28;20473;-45
2023/08/04 04:53:26;;;;;;;20.57;18.80;;;;;;;;;;5030006;28;20554;-43
2023/08/04 04:55:54;;;;;;;19.07;18.03;;;;;;;;;;5030417;28;20543;-42
2023/08/04 04:58:21;;;;;;;19.67;18.17;;;;;;;;;;5030420;28;20514;-44
2023/08/04 05:00:49;;;;;;;20.00;19.00;;;;;;;;;;5029624;28;20561;-46
2023/08/04 05:03:16;;;;;;;20.33;19.30;;;;;;;;;;5029657;28;21131;-43
2023/08/04 05:05:45;;;;;;;21.07;19.80;;;;;;;;;;5030086;28;20541;-45
2023/08/04 05:08:13;;;;;;;19.47;18.27;;;;;;;;;;5030291;28;20938;-45
2023/08/04 05:10:40;;;;;;;19.33;18.33;;;;;;;;;;5029340;28;20464;-44
2023/08/04 05:13:08;;;;;;;20.03;18.73;;;;;;;;;;5029888;28;20478;-43
2023/08/04 05:15:36;;;;;;;20.13;19.10;;;;;;;;;;5030038;28;20505;-43
2023/08/04 05:18:04;;;;;;;19.17;18.27;;;;;;;;;;5029636;28;20531;-42
2023/08/04 05:20:32;;;;;;;19.80;18.70;;;;;;;;;;5028996;28;20460;-46
2023/08/04 05:23:01;;;;;;;18.87;17.80;;;;;;;;;;5029065;28;20570;-42
2023/08/04 05:25:28;;;;;;;20.17;19.00;;;;;;;;;;5029137;28;20458;-43
2023/08/04 05:27:56;;;;;;;20.70;19.80;;;;;;;;;;5034364;28;20548;-42
2023/08/04 05:30:23;;;;;;;20.50;19.20;;;;;;;;;;5033434;28;20826;-45
2023/08/04 05:32:51;;;;;;;19.40;18.00;;;;;;;;;;5033743;28;20524;-43
2023/08/04 05:35:18;;;;;;;20.53;19.27;;;;;;;;;;5034188;28;20467;-43
2023/08/04 05:37:46;;;;;;;21.90;20.63;;;;;;;;;;5034061;28;20435;-42
2023/08/04 05:40:15;;;;;;;19.97;19.07;;;;;;;;;;5032285;28;20479;-48
2023/08/04 05:42:42;;;;;;;20.90;19.63;;;;;;;;;;5033308;28;20510;-45
2023/08/04 05:45:10;;;;;;;20.00;19.00;;;;;;;;;;5034778;28;20895;-46
2023/08/04 05:47:37;;;;;;;21.43;20.13;;;;;;;;;;5033509;28;20463;-46
2023/08/04 05:50:05;;;;;;;22.37;21.20;;;;;;;;;;5031897;28;20834;-43
2023/08/04 05:52:33;;;;;;;21.37;20.27;;;;;;;;;;5033381;28;20466;-42
2023/08/04 05:55:01;;;;;;;20.97;19.53;;;;;;;;;;5033514;28;20964;-43
2023/08/04 05:57:29;;;;;;;20.10;18.93;;;;;;;;;;5034793;28;20443;-43
2023/08/04 05:59:57;;;;;;;19.97;18.47;;;;;;;;;;5032778;28;20880;-43
2023/08/04 06:02:25;;;;;;;20.30;19.40;;;;;;;;;;5034036;28;20485;-44
2023/08/04 06:04:52;;;;;;;20.20;18.87;;;;;;;;;;5033287;28;20454;-43
2023/08/04 06:07:20;;;;;;;21.87;20.40;;;;;;;;;;5031558;28;20428;-42
2023/08/04 06:09:47;;;;;;;21.60;20.40;;;;;;;;;;5032689;28;20486;-43
2023/08/04 06:12:15;;;;;;;22.07;20.60;;;;;;;;;;5033886;28;20863;-48
2023/08/04 06:14:46;;;;;;;19.97;19.00;;;;;;;;;;5033212;28;20455;-43
2023/08/04 06:17:13;;;;;;;18.70;18.00;;;;;;;;;;5033506;28;20470;-43
2023/08/04 06:19:41;;;;;;;19.27;18.13;;;;;;;;;;5032330;28;20563;-43
2023/08/04 06:22:09;;;;;;;18.50;17.40;;;;;;;;;;5033935;28;20475;-46
2023/08/04 06:24:37;;;;;;;18.83;18.10;;;;;;;;;;5030250;28;20538;-43
2023/08/04 06:27:04;;;;;;;19.27;18.13;;;;;;;;;;5033532;28;20989;-46
2023/08/04 06:29:32;;;;;;;18.03;17.17;;;;;;;;;;5031958;28;20464;-44
2023/08/04 06:32:01;;;;;;;18.97;17.87;;;;;;;;;;5032409;28;20518;-43
2023/08/04 06:34:29;;;;;;;18.53;17.53;;;;;;;;;;5032024;28;20479;-44
2023/08/04 06:36:57;;;;;;;18.63;17.43;;;;;;;;;;5032220;28;20582;-44
2023/08/04 06:39:25;;;;;;;16.43;15.43;;;;;;;;;;5031227;28;20463;-43
2023/08/04 06:41:53;;;;;;;16.70;15.90;;;;;;;;;;5032433;28;20462;-44
2023/08/04 06:44:21;;;;;;;16.50;15.60;;;;;;;;;;5032607;28;20519;-45
2023/08/04 06:46:49;;;;;;;16.57;15.87;;;;;;;;;;5031061;28;20442;-44
2023/08/04 06:49:19;;;;;;;17.23;16.20;;;;;;;;;;5030149;28;21251;-44
2023/08/04 06:51:49;;;;;;;17.47;16.47;;;;;;;;;;5032168;28;21030;-43
2023/08/04 06:54:17;;;;;;;15.90;15.07;;;;;;;;;;5032937;28;20475;-45
2023/08/04 06:56:45;;;;;;;15.53;14.50;;;;;;;;;;5032537;28;20432;-46
2023/08/04 06:59:12;;;;;;;15.60;14.80;;;;;;;;;;5032069;28;21274;-43
2023/08/04 07:01:40;;;;;;;13.73;13.23;;;;;;;;;;5031929;28;20424;-44
2023/08/04 07:04:07;;;;;;;19.57;14.93;;;;;;;;;;5032528;28;20439;-43
2023/08/04 07:06:37;;;;;;;13.60;12.60;;;;;;;;;;5031852;28;20428;-44
2023/08/04 07:09:05;;;;;;;15.63;14.40;;;;;;;;;;5032270;28;20439;-44
2023/08/04 07:11:32;;;;;;;11.87;11.20;;;;;;;;;;5032572;28;20463;-43
2023/08/04 07:14:00;;;;;;;11.47;10.77;;;;;;;;;;5032484;28;20849;-45
2023/08/04 07:16:27;;;;;;;10.30;9.50;;;;;;;;;;5032981;28;20491;-47
2023/08/04 07:18:55;;;;;;;10.20;9.70;;;;;;;;;;5030741;28;20444;-44
2023/08/04 07:21:22;;;;;;;9.77;9.27;;;;;;;;;;5032575;28;20825;-44
2023/08/04 07:23:51;;;;;;;10.23;9.47;;;;;;;;;;5032207;28;20735;-45
2023/08/04 07:26:18;;;;;;;9.37;8.70;;;;;;;;;;5032255;28;20479;-43
2023/08/04 07:28:46;;;;;;;8.33;7.70;;;;;;;;;;5032099;28;21147;-45
2023/08/04 07:31:13;;;;;;;9.67;8.83;;;;;;;;;;5032716;28;20428;-45
2023/08/04 07:33:41;;;;;;;8.30;7.90;;;;;;;;;;5031570;28;20471;-43
2023/08/04 07:36:08;;;;;;;8.47;7.67;;;;;;;;;;5032307;28;20502;-44
2023/08/04 07:38:36;;;;;;;8.83;8.13;;;;;;;;;;5029747;28;20436;-45
2023/08/04 07:41:05;;;;;;;7.80;7.30;;;;;;;;;;5030530;28;20491;-43
2023/08/04 07:43:32;;;;;;;8.63;7.80;;;;;;;;;;5031280;28;20482;-45
2023/08/04 07:46:00;;;;;;;7.23;6.53;;;;;;;;;;5031172;28;20981;-44
2023/08/04 07:48:29;;;;;;;7.43;7.00;;;;;;;;;;5028429;28;20511;-43
2023/08/04 07:50:57;;;;;;;7.43;7.03;;;;;;;;;;5029914;28;20467;-44
2023/08/04 07:53:26;;;;;;;7.80;7.33;;;;;;;;;;5030838;28;20475;-43
2023/08/04 07:55:54;;;;;;;9.00;7.80;;;;;;;;;;5031392;28;20459;-43
2023/08/04 07:58:23;;;;;;;7.60;7.10;;;;;;;;;;5031907;28;20489;-44
2023/08/04 08:00:51;;;;;;;8.10;7.70;;;;;;;;;;5030432;28;20495;-43
2023/08/04 08:03:18;;;;;;;8.63;8.00;;;;;;;;;;5030494;28;20529;-46
2023/08/04 08:05:47;;;;;;;7.53;7.23;;;;;;;;;;5027734;28;20814;-43
2023/08/04 08:08:15;;;;;;;7.90;7.50;;;;;;;;;;5030261;28;20435;-42
2023/08/04 08:10:43;;;;;;;6.90;6.60;;;;;;;;;;5028804;28;20886;-49
2023/08/04 08:13:10;;;;;;;8.50;8.00;;;;;;;;;;5030380;28;20443;-45
2023/08/04 08:15:39;;;;;;;6.97;6.67;;;;;;;;;;5029880;28;20533;-45
2023/08/04 08:18:07;;;;;;;8.23;7.40;;;;;;;;;;5030220;28;20432;-44
2023/08/04 08:20:34;;;;;;;8.63;8.13;;;;;;;;;;5030100;28;20514;-44
2023/08/04 08:23:02;;;;;;;10.53;9.43;;;;;;;;;;5030326;28;21177;-46
2023/08/04 08:25:30;;;;;;;10.73;9.90;;;;;;;;;;5029313;28;20957;-44
2023/08/04 08:27:59;;;;;;;7.70;7.20;;;;;;;;;;5030580;28;20436;-43
2023/08/04 08:30:27;;;;;;;9.33;8.63;;;;;;;;;;5029472;28;20530;-48
2023/08/04 08:32:56;;;;;;;8.60;7.60;;;;;;;;;;5029261;28;20811;-43
2023/08/04 08:35:23;;;;;;;7.40;7.07;;;;;;;;;;5029231;28;20479;-44
2023/08/04 08:37:51;;;;;;;8.00;7.40;;;;;;;;;;5030059;28;20459;-44
2023/08/04 08:40:19;;;;;;;7.40;6.80;;;;;;;;;;5030290;28;20529;-43
2023/08/04 08:42:46;;;;;;;7.33;6.97;;;;;;;;;;5028120;28;20771;-44
2023/08/04 08:45:14;;;;;;;6.17;5.77;;;;;;;;;;5029127;28;21035;-43
2023/08/04 08:47:46;;;;;;;6.87;6.53;;;;;;;;;;5029169;28;20995;-43
2023/08/04 08:50:17;;;;;;;6.90;6.50;;;;;;;;;;5028846;28;20471;-45
2023/08/04 08:52:48;;;;;;;7.60;6.87;;;;;;;;;;5028791;28;20489;-42
2023/08/04 08:55:16;;;;;;;7.53;7.13;;;;;;;;;;5029626;28;20911;-45
2023/08/04 08:57:44;;;;;;;7.60;7.10;;;;;;;;;;5027261;28;20486;-43
2023/08/04 09:00:12;;;;;;;6.40;5.80;;;;;;;;;;5028005;28;20460;-43
2023/08/04 09:02:40;;;;;;;6.83;6.20;;;;;;;;;;5027956;28;20440;-43
2023/08/04 09:05:08;;;;;;;5.90;5.60;;;;;;;;;;5028816;28;20455;-43
2023/08/04 09:07:37;;;;;;;6.00;5.60;;;;;;;;;;5028269;28;20440;-43
2023/08/04 09:10:07;;;;;;;5.77;5.17;;;;;;;;;;5028784;28;20459;-46
2023/08/04 09:12:35;;;;;;;5.17;4.90;;;;;;;;;;5029530;28;20725;-43
2023/08/04 09:15:04;;;;;;;4.60;4.40;;;;;;;;;;5029104;28;20475;-46
2023/08/04 09:17:32;;;;;;;5.27;4.90;;;;;;;;;;5028109;28;20459;-45
2023/08/04 09:20:00;;;;;;;4.20;3.93;;;;;;;;;;5028542;28;20459;-44
2023/08/04 09:22:31;;;;;;;5.00;3.80;;;;;;;;;;5028693;28;20810;-43
2023/08/04 09:25:00;;;;;;;4.40;4.00;;;;;;;;;;5028858;28;20526;-46
2023/08/04 09:27:33;;;;;;;3.80;3.63;;;;;;;;;;5029295;28;20436;-44
2023/08/04 09:30:01;;;;;;;6.17;4.70;;;;;;;;;;5029831;28;20467;-46
2023/08/04 09:32:29;;;;;;;4.70;4.30;;;;;;;;;;5028785;28;20932;-43
2023/08/04 09:35:01;;;;;;;4.57;4.17;;;;;;;;;;5029302;28;20471;-46
2023/08/04 09:37:31;;;;;;;4.00;3.70;;;;;;;;;;5025034;28;20432;-46
2023/08/04 09:40:00;;;;;;;4.90;4.50;;;;;;;;;;5028960;28;20467;-44
2023/08/04 09:42:28;;;;;;;3.60;3.50;;;;;;;;;;5027184;28;21008;-43
2023/08/04 09:44:55;;;;;;;4.67;4.30;;;;;;;;;;5028896;28;20474;-47
2023/08/04 09:47:23;;;;;;;45.87;9.40;;;;;;;;;;5028285;28;21013;-45
2023/08/04 09:49:51;;;;;;;14.27;5.47;;;;;;;;;;5028232;28;20506;-44
2023/08/04 09:52:23;;;;;;;4.87;4.10;;;;;;;;;;5027946;28;20441;-45
2023/08/04 09:54:51;;;;;;;4.30;4.00;;;;;;;;;;5027257;28;20533;-44
2023/08/04 09:57:21;;;;;;;3.30;3.10;;;;;;;;;;5028435;28;20439;-46
2023/08/04 09:59:49;;;;;;;4.70;3.70;;;;;;;;;;5025446;28;20467;-43
2023/08/04 10:02:18;;;;;;;3.97;3.77;;;;;;;;;;5030049;28;20523;-43
2023/08/04 10:04:48;;;;;;;3.70;3.50;;;;;;;;;;5020967;28;20447;-43
2023/08/04 10:07:18;;;;;;;3.43;3.23;;;;;;;;;;5029950;28;20428;-43
2023/08/04 10:09:47;;;;;;;3.60;3.27;;;;;;;;;;5029231;28;20466;-44
2023/08/04 10:12:15;;;;;;;3.30;3.00;;;;;;;;;;5029937;28;21175;-43
2023/08/04 10:14:44;;;;;;;3.50;3.37;;;;;;;;;;5032272;28;20512;-43
2023/08/04 10:17:12;;;;;;;3.03;2.77;;;;;;;;;;5032388;28;20439;-44
2023/08/04 10:19:39;;;;;;;3.00;2.90;;;;;;;;;;5032786;28;20462;-43
2023/08/04 10:22:08;;;;;;;2.87;2.67;;;;;;;;;;5032700;28;20443;-45
2023/08/04 10:24:37;;;;;;;3.27;3.10;;;;;;;;;;5031985;28;20983;-43
2023/08/04 10:27:15;;;;;;;3.00;2.80;;;;;;;;;;5032556;28;20447;-44
2023/08/04 10:29:44;;;;;;;4.10;3.70;;;;;;;;;;5031868;28;20463;-43
2023/08/04 10:32:11;;;;;;;3.80;3.40;;;;;;;;;;5033104;28;20432;-44
2023/08/04 10:34:42;;;;;;;3.70;3.40;;;;;;;;;;5032934;28;20452;-43
2023/08/04 10:37:14;;;;;;;3.90;3.60;;;;;;;;;;5032189;28;20519;-44
2023/08/04 10:39:43;;;;;;;3.00;2.77;;;;;;;;;;5029627;28;20459;-45
2023/08/04 10:42:15;;;;;;;3.43;3.23;;;;;;;;;;5031514;28;20852;-43
2023/08/04 10:44:53;;;;;;;3.10;2.90;;;;;;;;;;5030729;28;20491;-43
2023/08/04 10:47:32;;;;;;;3.10;3.00;;;;;;;;;;5029156;28;20869;-43
2023/08/04 10:50:00;;;;;;;4.07;3.63;;;;;;;;;;5029642;28;20468;-47
2023/08/04 10:52:28;;;;;;;6.13;3.53;;;;;;;;;;5030132;28;20439;-44
2023/08/04 10:54:57;;;;;;;3.43;3.23;;;;;;;;;;5031624;28;20479;-43
2023/08/04 10:57:27;;;;;;;6.30;3.57;;;;;;;;;;5030170;28;20489;-44
2023/08/04 10:59:56;;;;;;;6.07;3.27;;;;;;;;;;5030156;28;20459;-43
2023/08/04 11:02:24;;;;;;;3.50;3.20;;;;;;;;;;5031851;28;20498;-43
2023/08/04 11:04:53;;;;;;;5.80;4.47;;;;;;;;;;5031923;28;20459;-44
2023/08/04 11:07:21;;;;;;;4.07;3.67;;;;;;;;;;5023075;28;20917;-43
2023/08/04 11:09:49;;;;;;;3.70;3.50;;;;;;;;;;5031139;28;20927;-43
2023/08/04 11:12:17;;;;;;;6.80;4.07;;;;;;;;;;5031482;28;20876;-43
2023/08/04 11:14:45;;;;;;;6.70;3.80;;;;;;;;;;5031344;28;20483;-43
2023/08/04 11:17:14;;;;;;;3.97;3.80;;;;;;;;;;5032004;28;20554;-43
2023/08/04 11:19:43;;;;;;;6.97;4.87;;;;;;;;;;5031453;28;20459;-42
2023/08/04 11:22:12;;;;;;;8.87;5.20;;;;;;;;;;5031971;28;20461;-48
2023/08/04 11:24:39;;;;;;;9.23;4.73;;;;;;;;;;5031024;28;20818;-43
2023/08/04 11:27:08;;;;;;;4.87;4.30;;;;;;;;;;5031846;28;20918;-43
2023/08/04 11:29:35;;;;;;;4.40;4.00;;;;;;;;;;5031128;28;20542;-43
2023/08/04 11:32:08;;;;;;;7.07;4.10;;;;;;;;;;5031431;28;20977;-44
2023/08/04 11:34:39;;;;;;;5.60;3.77;;;;;;;;;;5030587;28;20459;-44
2023/08/04 11:37:07;;;;;;;6.13;3.97;;;;;;;;;;5032152;28;20477;-43
2023/08/04 11:39:37;;;;;;;3.83;3.53;;;;;;;;;;5030393;28;21020;-43
2023/08/04 11:42:09;;;;;;;3.80;3.60;;;;;;;;;;5031133;28;20467;-44
2023/08/04 11:44:37;;;;;;;4.70;3.63;;;;;;;;;;5031806;28;20459;-44
2023/08/04 11:47:05;;;;;;;3.70;3.50;;;;;;;;;;5032240;28;20450;-45
2023/08/04 11:49:34;;;;;;;4.13;3.20;;;;;;;;;;5031402;28;20464;-44
2023/08/04 11:52:07;;;;;;;5.47;4.17;;;;;;;;;;5030825;28;20818;-45
2023/08/04 11:54:35;;;;;;;3.90;3.60;;;;;;;;;;5031271;28;20459;-44
2023/08/04 11:57:03;;;;;;;3.50;3.27;;;;;;;;;;5031659;28;20541;-43
2023/08/04 11:59:30;;;;;;;5.20;3.43;;;;;;;;;;5031576;28;20571;-43
2023/08/04 12:02:04;;;;;;;4.27;3.97;;;;;;;;;;5031520;28;20443;-43
2023/08/04 12:04:32;;;;;;;3.90;3.53;;;;;;;;;;5030733;28;20829;-48
2023/08/04 12:07:01;;;;;;;4.47;3.80;;;;;;;;;;5031662;28;20861;-43
2023/08/04 12:09:30;;;;;;;4.80;4.50;;;;;;;;;;5030850;28;21047;-43
2023/08/04 12:11:58;;;;;;;5.07;4.47;;;;;;;;;;5030917;28;20992;-45
2023/08/04 12:14:26;;;;;;;4.27;3.83;;;;;;;;;;5031367;28;20432;-43
2023/08/04 12:16:54;;;;;;;5.23;4.27;;;;;;;;;;5031696;28;20547;-43
2023/08/04 12:19:23;;;;;;;4.20;3.77;;;;;;;;;;5030893;28;20459;-46
2023/08/04 12:21:51;;;;;;;4.13;3.90;;;;;;;;;;5030163;28;20888;-44
2023/08/04 12:24:18;;;;;;;4.00;3.80;;;;;;;;;;5031317;28;20940;-43
2023/08/04 12:26:47;;;;;;;5.10;3.73;;;;;;;;;;5031354;28;20431;-46
2023/08/04 12:29:15;;;;;;;4.03;3.73;;;;;;;;;;5030862;28;20455;-42
2023/08/04 12:31:43;;;;;;;5.17;3.90;;;;;;;;;;5030625;28;20535;-43
2023/08/04 12:34:11;;;;;;;4.70;4.30;;;;;;;;;;5031186;28;20428;-49
2023/08/04 12:36:38;;;;;;;6.47;4.73;;;;;;;;;;5030016;28;20563;-46
2023/08/04 12:39:08;;;;;;;5.70;5.20;;;;;;;;;;5030717;28;20852;-44
2023/08/04 12:41:35;;;;;;;7.00;5.57;;;;;;;;;;5030621;28;20463;-42
2023/08/04 12:44:04;;;;;;;6.70;5.63;;;;;;;;;;5031455;28;20459;-50
2023/08/04 12:46:32;;;;;;;5.53;4.90;;;;;;;;;;5030471;28;20513;-43
2023/08/04 12:49:00;;;;;;;5.87;5.37;;;;;;;;;;5029603;28;20430;-43
2023/08/04 12:51:27;;;;;;;6.53;5.70;;;;;;;;;;5030056;28;20431;-46
2023/08/04 12:53:55;;;;;;;6.03;5.53;;;;;;;;;;5030766;28;20522;-43
2023/08/04 12:56:23;;;;;;;6.23;5.30;;;;;;;;;;5030663;28;20574;-45
2023/08/04 12:58:51;;;;;;;5.33;4.90;;;;;;;;;;5029881;28;20470;-42
2023/08/04 13:01:19;;;;;;;6.00;5.50;;;;;;;;;;5030723;28;21157;-43
2023/08/04 13:03:47;;;;;;;5.87;5.57;;;;;;;;;;5030366;28;20446;-43
2023/08/04 13:06:17;;;;;;;5.83;5.50;;;;;;;;;;5030324;28;20479;-44
2023/08/04 13:08:45;;;;;;;5.77;5.30;;;;;;;;;;5030657;28;20439;-44
2023/08/04 13:11:12;;;;;;;5.30;4.97;;;;;;;;;;5029907;28;20464;-42
2023/08/04 13:13:40;;;;;;;5.80;5.50;;;;;;;;;;5029627;28;20436;-43
2023/08/04 13:16:09;;;;;;;5.93;5.40;;;;;;;;;;5029905;28;20973;-42
2023/08/04 13:18:38;;;;;;;5.30;5.00;;;;;;;;;;5030480;28;20435;-43
2023/08/04 13:21:06;;;;;;;7.20;5.40;;;;;;;;;;5029697;28;20472;-43
2023/08/04 13:23:34;;;;;;;5.60;4.80;;;;;;;;;;5030370;28;20431;-43
2023/08/04 13:26:02;;;;;;;5.37;4.97;;;;;;;;;;5029950;28;20456;-44
2023/08/04 13:28:30;;;;;;;5.30;4.80;;;;;;;;;;5029691;28;20923;-43
2023/08/04 13:30:59;;;;;;;6.40;5.90;;;;;;;;;;5029113;28;20474;-43
2023/08/04 13:33:26;;;;;;;9.13;5.80;;;;;;;;;;5030250;28;20470;-43
2023/08/04 13:35:55;;;;;;;6.20;5.20;;;;;;;;;;5024778;28;20475;-43
2023/08/04 13:38:23;;;;;;;10.80;5.50;;;;;;;;;;5028834;28;20993;-43
2023/08/04 13:40:51;;;;;;;5.87;5.27;;;;;;;;;;5029034;28;20506;-42
2023/08/04 13:43:18;;;;;;;5.93;5.40;;;;;;;;;;5029025;28;21004;-43
2023/08/04 13:45:46;;;;;;;5.80;5.40;;;;;;;;;;5028201;28;20487;-42
2023/08/04 13:48:13;;;;;;;12.40;5.80;;;;;;;;;;5030949;28;20467;-45
2023/08/04 13:50:41;;;;;;;5.90;5.40;;;;;;;;;;5031490;28;20494;-42
2023/08/04 13:53:10;;;;;;;5.97;5.37;;;;;;;;;;5032559;28;20436;-44
2023/08/04 13:55:38;;;;;;;6.80;5.70;;;;;;;;;;5033491;28;20510;-43
2023/08/04 13:58:05;;;;;;;6.50;5.93;;;;;;;;;;5033373;28;20502;-44
2023/08/04 14:00:33;;;;;;;7.07;5.40;;;;;;;;;;5032922;28;20491;-43
2023/08/04 14:03:00;;;;;;;4.60;4.30;;;;;;;;;;5032037;28;20493;-43
2023/08/04 14:05:28;;;;;;;6.10;3.97;;;;;;;;;;5032630;28;20494;-42
2023/08/04 14:07:55;;;;;;;5.50;5.10;;;;;;;;;;5031341;28;21059;-43
2023/08/04 14:10:25;;;;;;;5.90;5.40;;;;;;;;;;5030935;28;20473;-42
2023/08/04 14:12:53;;;;;;;7.17;4.43;;;;;;;;;;5031902;28;20798;-45
2023/08/04 14:15:21;;;;;;;4.80;4.50;;;;;;;;;;5032266;28;20538;-42
2023/08/04 14:17:48;;;;;;;6.80;4.83;;;;;;;;;;5032700;28;20836;-45
2023/08/04 14:20:16;;;;;;;6.77;4.73;;;;;;;;;;5030756;28;20463;-48
2023/08/04 14:22:44;;;;;;;5.07;4.63;;;;;;;;;;5028713;28;20482;-43
2023/08/04 14:25:11;;;;;;;5.50;5.00;;;;;;;;;;5030210;28;20509;-44
2023/08/04 14:27:40;;;;;;;5.30;5.00;;;;;;;;;;5030030;28;20514;-42
2023/08/04 14:30:08;;;;;;;5.17;4.70;;;;;;;;;;5028547;28;20540;-45
2023/08/04 14:32:38;;;;;;;6.33;5.40;;;;;;;;;;5028777;28;20435;-44
2023/08/04 14:35:06;;;;;;;6.43;5.57;;;;;;;;;;5029126;28;20542;-46